createdAt,value
2022-12-19T00:01:38.580Z,6.00
2022-12-19T00:04:08.825Z,5.40
2022-12-19T00:06:38.010Z,6.47
2022-12-19T00:09:10.529Z,5.27
2022-12-19T00:11:56.233Z,4.53
2022-12-19T00:14:22.998Z,5.27
2022-12-19T00:16:49.680Z,5.40
2022-12-19T00:19:16.772Z,5.47
2022-12-19T00:21:43.513Z,5.63
2022-12-19T00:24:16.270Z,5.27
2022-12-19T00:26:47.807Z,6.50
2022-12-19T00:29:14.828Z,6.03
2022-12-19T00:31:41.901Z,5.90
2022-12-19T00:34:09.473Z,5.47
2022-12-19T00:36:36.346Z,6.77
2022-12-19T00:39:08.100Z,6.80
2022-12-19T00:41:41.547Z,4.70
2022-12-19T00:44:14.449Z,5.83
2022-12-19T00:46:41.517Z,6.07
2022-12-19T00:49:08.293Z,4.80
2022-12-19T00:51:37.148Z,6.30
2022-12-19T00:54:05.443Z,5.70
2022-12-19T00:57:10.712Z,5.60
2022-12-19T00:59:37.512Z,5.73
2022-12-19T01:02:04.308Z,5.30
2022-12-19T01:04:34.364Z,5.93
2022-12-19T01:07:05.815Z,6.60
2022-12-19T01:09:34.440Z,6.40
2022-12-19T01:12:23.939Z,5.87
2022-12-19T01:14:54.683Z,5.50
2022-12-19T01:17:25.535Z,6.10
2022-12-19T01:19:53.252Z,5.47
2022-12-19T01:22:20.020Z,5.83
2022-12-19T01:24:46.756Z,5.43
2022-12-19T01:27:15.357Z,5.77
2022-12-19T01:29:49.093Z,4.07
2022-12-19T01:32:19.716Z,5.13
2022-12-19T01:34:46.425Z,5.77
2022-12-19T01:37:13.201Z,4.40
2022-12-19T01:39:39.940Z,5.40
2022-12-19T01:42:23.387Z,5.10
2022-12-19T01:45:30.243Z,4.80
2022-12-19T01:48:06.330Z,5.33
2022-12-19T01:50:56.038Z,5.67
2022-12-19T01:53:47.429Z,5.03
2022-12-19T01:56:20.722Z,5.17
2022-12-19T01:58:49.576Z,5.00
2022-12-19T02:01:18.095Z,5.40
2022-12-19T02:03:46.090Z,5.20
2022-12-19T02:06:14.785Z,5.70
2022-12-19T02:08:44.680Z,5.40
2022-12-19T02:11:11.453Z,5.80
2022-12-19T02:13:39.436Z,5.13
2022-12-19T02:16:16.649Z,5.13
2022-12-19T02:18:47.891Z,4.60
2022-12-19T02:21:45.588Z,4.53
2022-12-19T02:24:48.462Z,5.47
2022-12-19T02:27:51.293Z,5.50
2022-12-19T02:30:36.869Z,5.40
2022-12-19T02:33:16.057Z,6.07
2022-12-19T02:35:56.393Z,6.17
2022-12-19T02:38:37.151Z,5.90
2022-12-19T02:41:15.703Z,5.70
2022-12-19T02:43:49.055Z,5.77
2022-12-19T02:46:27.856Z,4.60
2022-12-19T02:48:55.466Z,5.10
2022-12-19T02:51:22.264Z,5.57
2022-12-19T02:53:49.390Z,4.40
2022-12-19T02:56:48.427Z,4.97
2022-12-19T02:59:45.603Z,3.00
2022-12-19T03:02:18.631Z,3.90
2022-12-19T03:04:59.702Z,2.83
2022-12-19T03:07:58.340Z,3.78
2022-12-19T03:10:36.317Z,2.90
2022-12-19T03:13:10.761Z,2.70
2022-12-19T03:15:39.728Z,3.10
2022-12-19T03:18:08.185Z,3.40
2022-12-19T03:20:50.058Z,2.72
2022-12-19T03:23:36.025Z,3.40
2022-12-19T03:26:09.751Z,4.10
2022-12-19T03:28:43.486Z,3.87
2022-12-19T03:31:12.220Z,4.40
2022-12-19T03:33:41.984Z,4.22
2022-12-19T03:36:16.327Z,3.00
2022-12-19T03:38:45.970Z,4.82
2022-12-19T03:41:16.104Z,4.30
2022-12-19T03:43:45.453Z,4.13
2022-12-19T03:46:30.442Z,4.30
2022-12-19T03:48:57.403Z,4.97
2022-12-19T03:51:45.790Z,4.23
2022-12-19T03:54:20.890Z,4.60
2022-12-19T03:56:54.888Z,5.40
2022-12-19T03:59:46.676Z,5.72
2022-12-19T04:02:16.504Z,5.82
2022-12-19T04:04:46.956Z,4.93
2022-12-19T04:07:16.013Z,6.25
2022-12-19T04:09:45.518Z,5.90
2022-12-19T04:12:28.725Z,6.15
2022-12-19T04:14:55.535Z,7.45
2022-12-19T04:17:28.066Z,8.43
2022-12-19T04:20:05.606Z,8.17
2022-12-19T04:22:36.775Z,10.32
2022-12-19T04:25:06.891Z,11.48
2022-12-19T04:27:56.942Z,8.68
2022-12-19T04:30:23.786Z,9.27
2022-12-19T04:32:51.346Z,9.77
2022-12-19T04:35:18.429Z,8.65
2022-12-19T04:37:45.441Z,10.47
2022-12-19T04:40:12.903Z,11.05
2022-12-19T04:42:39.665Z,9.27
2022-12-19T04:45:07.045Z,9.90
2022-12-19T04:47:34.319Z,9.43
2022-12-19T04:50:01.152Z,8.85
2022-12-19T04:52:27.899Z,7.45
2022-12-19T04:54:54.691Z,7.13
2022-12-19T04:57:21.549Z,7.17
2022-12-19T04:59:48.259Z,6.65
2022-12-19T05:02:15.133Z,6.70
2022-12-19T05:04:41.906Z,5.97
2022-12-19T05:07:08.705Z,6.50
2022-12-19T05:09:36.890Z,5.63
2022-12-19T05:12:03.875Z,4.60
2022-12-19T05:14:30.795Z,4.40
2022-12-19T05:17:01.591Z,4.00
2022-12-19T05:19:29.156Z,3.67
2022-12-19T05:21:55.978Z,3.10
2022-12-19T05:24:23.116Z,3.05
2022-12-19T05:26:49.884Z,3.00
2022-12-19T05:32:20.932Z,3.67
2022-12-19T05:34:47.746Z,4.63
2022-12-19T05:37:14.669Z,4.88
2022-12-19T05:39:41.449Z,3.60
2022-12-19T05:42:12.147Z,5.03
2022-12-19T05:44:39.568Z,4.57
2022-12-19T05:47:06.463Z,4.63
2022-12-19T05:49:33.371Z,4.68
2022-12-19T05:52:00.099Z,6.77
2022-12-19T05:54:26.999Z,5.28
2022-12-19T05:56:53.722Z,5.50
2022-12-19T05:59:20.452Z,4.88
2022-12-19T06:01:47.255Z,5.30
2022-12-19T06:04:14.162Z,5.20
2022-12-19T06:06:41.549Z,5.35
2022-12-19T06:09:08.379Z,5.13
2022-12-19T06:11:35.151Z,5.03
2022-12-19T06:14:01.873Z,5.72
2022-12-19T06:16:28.646Z,6.03
2022-12-19T06:18:55.541Z,5.78
2022-12-19T06:21:23.294Z,5.90
2022-12-19T06:23:50.429Z,5.07
2022-12-19T06:26:20.142Z,5.95
2022-12-19T06:28:54.813Z,6.45
2022-12-19T06:31:23.688Z,6.32
2022-12-19T06:33:52.205Z,5.65
2022-12-19T06:36:24.805Z,5.47
2022-12-19T06:38:52.250Z,5.35
2022-12-19T06:41:38.788Z,4.85
2022-12-19T06:44:09.421Z,4.82
2022-12-19T06:46:55.351Z,5.38
2022-12-19T06:49:22.130Z,6.03
2022-12-19T06:51:49.023Z,4.18
2022-12-19T06:54:15.991Z,5.20
2022-12-19T06:56:43.602Z,5.63
2022-12-19T06:59:15.364Z,5.20
2022-12-19T07:01:49.234Z,3.90
2022-12-19T07:04:39.451Z,4.80
2022-12-19T07:07:06.320Z,4.35
2022-12-19T07:09:34.573Z,4.60
2022-12-19T07:12:02.111Z,5.13
2022-12-19T07:14:28.870Z,5.57
2022-12-19T07:16:59.391Z,4.88
2022-12-19T07:19:27.615Z,5.60
2022-12-19T07:21:55.674Z,5.57
2022-12-19T07:24:22.686Z,4.05
2022-12-19T07:26:49.603Z,3.88
2022-12-19T07:29:16.443Z,5.55
2022-12-19T07:31:43.208Z,3.75
2022-12-19T07:34:28.412Z,4.32
2022-12-19T07:36:55.210Z,4.32
2022-12-19T07:39:22.058Z,4.43
2022-12-19T07:41:48.890Z,5.28
2022-12-19T07:44:29.346Z,5.18
2022-12-19T07:46:56.111Z,5.00
2022-12-19T07:49:23.147Z,5.13
2022-12-19T07:51:49.988Z,7.75
2022-12-19T07:54:16.712Z,5.03
2022-12-19T07:56:43.485Z,4.45
2022-12-19T07:59:10.285Z,3.38
2022-12-19T08:01:37.121Z,4.38
2022-12-19T08:04:04.219Z,3.60
2022-12-19T08:06:50.874Z,3.88
2022-12-19T08:09:36.417Z,4.13
2022-12-19T08:12:03.300Z,4.50
2022-12-19T08:14:30.157Z,4.57
2022-12-19T08:17:19.841Z,4.00
2022-12-19T08:20:02.578Z,2.95
2022-12-19T08:22:31.332Z,2.90
2022-12-19T08:24:58.183Z,5.47
2022-12-19T08:27:25.637Z,4.68
2022-12-19T08:29:52.606Z,3.20
2022-12-19T08:32:21.520Z,3.85
2022-12-19T08:34:49.986Z,2.83
2022-12-19T08:37:17.553Z,4.35
2022-12-19T08:39:44.616Z,4.72
2022-12-19T08:42:11.368Z,3.90
2022-12-19T08:44:38.292Z,4.03
2022-12-19T08:47:05.374Z,4.93
2022-12-19T08:49:32.106Z,3.95
2022-12-19T08:51:58.925Z,4.78
2022-12-19T08:54:27.232Z,4.07
2022-12-19T08:56:54.016Z,5.25
2022-12-19T08:59:30.326Z,3.80
2022-12-19T09:02:02.258Z,4.88
2022-12-19T09:05:58.292Z,3.60
2022-12-19T09:07:16.976Z,2.88
2022-12-19T09:10:03.402Z,4.13
2022-12-19T09:12:30.175Z,5.03
2022-12-19T09:14:56.859Z,3.42
2022-12-19T09:22:53.274Z,3.17
2022-12-19T09:25:58.057Z,2.60
2022-12-19T09:28:27.732Z,3.55
2022-12-19T09:30:59.971Z,3.55
2022-12-19T09:33:28.395Z,2.97
2022-12-19T09:35:56.817Z,2.05
2022-12-19T09:38:44.493Z,2.90
2022-12-19T09:41:14.084Z,2.15
2022-12-19T09:44:01.991Z,2.50
2022-12-19T09:47:09.955Z,2.17
2022-12-19T09:50:14.814Z,2.50
2022-12-19T09:53:06.493Z,2.75
2022-12-19T09:55:41.110Z,3.20
2022-12-19T09:58:35.197Z,2.63
2022-12-19T10:01:08.132Z,4.38
2022-12-19T10:04:12.429Z,2.85
2022-12-19T10:07:18.187Z,3.58
2022-12-19T10:12:36.705Z,2.50
2022-12-19T10:13:13.523Z,3.42
2022-12-19T10:18:57.361Z,2.97
2022-12-19T10:22:15.826Z,2.10
2022-12-19T10:28:00.518Z,3.08
2022-12-19T10:30:32.498Z,1.92
2022-12-19T10:36:02.142Z,1.80
2022-12-19T10:38:51.746Z,2.97
2022-12-19T10:41:28.436Z,2.30
2022-12-19T10:44:08.371Z,2.70
2022-12-19T10:46:53.139Z,2.40
2022-12-19T10:49:22.639Z,2.42
2022-12-19T10:52:04.612Z,2.08
2022-12-19T10:54:41.037Z,2.28
2022-12-19T10:57:18.689Z,1.23
2022-12-19T11:06:00.497Z,1.83
2022-12-19T11:08:32.275Z,2.70
2022-12-19T11:19:28.646Z,2.67
2022-12-19T11:23:28.388Z,2.55
2022-12-19T11:29:26.877Z,1.77
2022-12-19T11:29:41.738Z,2.75
2022-12-19T11:30:06.588Z,2.67
2022-12-19T11:30:26.145Z,2.13
2022-12-19T11:32:20.608Z,2.67
2022-12-19T11:34:22.624Z,2.45
2022-12-19T11:37:09.752Z,3.60
2022-12-19T11:39:51.466Z,3.03
2022-12-19T11:48:50.837Z,3.28
2022-12-19T11:51:43.781Z,2.45
2022-12-19T11:54:29.965Z,2.53
2022-12-19T11:56:57.890Z,2.90
2022-12-19T11:59:44.280Z,3.55
2022-12-19T12:02:32.493Z,3.55
2022-12-19T12:06:00.357Z,3.42
2022-12-19T12:10:35.929Z,4.53
2022-12-19T12:22:17.407Z,4.60
2022-12-19T12:26:41.324Z,4.35
2022-12-19T12:31:07.949Z,4.97
2022-12-19T12:31:43.658Z,3.83
2022-12-19T12:31:49.436Z,4.20
2022-12-19T12:31:58.265Z,5.00
2022-12-19T12:35:43.570Z,4.65
2022-12-19T12:40:45.813Z,4.47
2022-12-19T12:43:31.161Z,5.07
2022-12-19T12:45:58.212Z,5.82
2022-12-19T12:48:31.246Z,4.88
2022-12-19T12:51:00.649Z,5.38
2022-12-19T13:00:24.968Z,6.25
2022-12-19T13:03:16.045Z,4.43
2022-12-19T13:05:49.063Z,4.10
2022-12-19T13:08:45.619Z,4.63
2022-12-19T13:11:49.475Z,5.05
2022-12-19T13:14:36.221Z,5.90
2022-12-19T13:17:11.331Z,5.55
2022-12-19T13:20:18.706Z,5.85
2022-12-19T13:23:03.097Z,6.40
2022-12-19T13:25:36.756Z,4.40
2022-12-19T13:28:03.523Z,5.05
2022-12-19T13:31:21.367Z,4.85
2022-12-19T13:33:53.547Z,4.72
2022-12-19T13:40:00.346Z,5.43
2022-12-19T13:40:11.281Z,5.40
2022-12-19T13:43:13.614Z,6.82
2022-12-19T13:46:05.509Z,4.63
2022-12-19T13:48:53.983Z,5.13
2022-12-19T13:51:20.769Z,5.85
2022-12-19T13:53:59.077Z,5.05
2022-12-19T13:56:30.681Z,5.30
2022-12-19T13:59:16.123Z,5.97
2022-12-19T14:02:21.105Z,6.15
2022-12-19T14:04:48.418Z,5.07
2022-12-19T14:07:37.036Z,5.22
2022-12-19T14:11:38.307Z,5.75
2022-12-19T14:13:49.095Z,5.97
2022-12-19T14:16:40.196Z,5.13
2022-12-19T14:19:31.032Z,5.85
2022-12-19T14:22:25.171Z,5.55
2022-12-19T14:25:10.028Z,7.63
2022-12-19T14:28:29.396Z,5.60
2022-12-19T14:34:46.817Z,6.43
2022-12-19T14:37:31.553Z,6.05
2022-12-19T14:41:08.632Z,5.90
2022-12-19T14:44:00.404Z,6.10
2022-12-19T14:54:09.339Z,5.72
2022-12-19T14:54:16.485Z,7.35
2022-12-19T14:54:34.716Z,4.97
2022-12-19T14:56:04.170Z,6.93
2022-12-19T14:58:53.315Z,6.03
2022-12-19T15:01:50.939Z,6.90
2022-12-19T15:04:52.826Z,5.50
2022-12-19T15:07:16.694Z,5.75
2022-12-19T15:11:03.268Z,5.53
2022-12-19T15:14:53.290Z,5.13
2022-12-19T15:19:16.317Z,6.10
2022-12-19T15:21:43.089Z,5.63
2022-12-19T15:26:54.835Z,4.97
2022-12-19T15:29:22.436Z,5.63
2022-12-19T15:32:27.127Z,6.57
2022-12-19T15:35:32.135Z,5.20
2022-12-19T15:37:59.192Z,5.20
2022-12-19T15:40:25.972Z,4.75
2022-12-19T15:42:55.234Z,5.13
2022-12-19T15:46:19.528Z,4.60
2022-12-19T15:49:08.607Z,4.75
2022-12-19T15:51:54.503Z,5.22
2022-12-19T15:54:49.737Z,5.60
2022-12-19T15:57:55.802Z,4.80
2022-12-19T16:01:05.868Z,3.88
2022-12-19T16:03:34.490Z,4.57
2022-12-19T16:06:57.900Z,5.78
2022-12-19T16:10:03.822Z,5.55
2022-12-19T16:12:56.642Z,5.22
2022-12-19T16:15:30.939Z,5.90
2022-12-19T16:17:59.157Z,6.03
2022-12-19T16:23:50.579Z,6.38
2022-12-19T16:26:53.081Z,4.90
2022-12-19T16:29:27.279Z,4.85
2022-12-19T16:31:55.174Z,5.65
2022-12-19T16:34:24.062Z,6.18
2022-12-19T16:36:51.215Z,5.60
2022-12-19T16:39:37.513Z,5.78
2022-12-19T16:42:23.511Z,5.40
2022-12-19T16:44:50.323Z,5.53
2022-12-19T16:47:18.029Z,6.60
2022-12-19T16:49:45.172Z,5.80
2022-12-19T16:52:30.392Z,5.43
2022-12-19T16:54:57.192Z,5.55
2022-12-19T16:57:24.095Z,6.07
2022-12-19T17:06:38.279Z,4.85
2022-12-19T17:10:02.211Z,6.07
2022-12-19T17:12:29.190Z,4.80
2022-12-19T17:14:56.089Z,5.70
2022-12-19T17:20:14.886Z,5.15
2022-12-19T17:23:00.162Z,6.10
2022-12-19T17:31:24.323Z,7.13
2022-12-19T17:34:21.815Z,5.60
2022-12-19T17:36:48.663Z,5.50
2022-12-19T17:39:24.359Z,5.60
2022-12-19T17:42:18.603Z,6.57
2022-12-19T17:45:04.842Z,5.63
2022-12-19T17:50:40.713Z,6.95
2022-12-19T17:53:14.041Z,7.15
2022-12-19T18:01:32.989Z,6.78
2022-12-19T18:04:21.152Z,4.00
2022-12-19T18:06:49.354Z,5.45
2022-12-19T18:09:23.981Z,5.75
2022-12-19T18:11:52.819Z,5.88
2022-12-19T18:14:20.065Z,5.13
2022-12-19T18:16:48.411Z,4.90
2022-12-19T18:19:20.697Z,5.00
2022-12-19T18:21:47.964Z,4.40
2022-12-19T18:24:52.396Z,3.42
2022-12-19T18:27:38.499Z,3.50
2022-12-19T18:37:13.521Z,3.03
2022-12-19T18:39:58.923Z,3.63
2022-12-19T18:42:44.992Z,3.67
2022-12-19T18:45:40.062Z,2.90
2022-12-19T18:48:18.375Z,3.08
2022-12-19T18:51:42.274Z,3.13
2022-12-19T18:54:47.438Z,2.55
2022-12-19T18:57:33.147Z,2.97
2022-12-19T19:00:39.271Z,3.13
2022-12-19T19:04:03.278Z,3.03
2022-12-19T19:07:28.043Z,1.73
2022-12-19T19:10:33.323Z,2.88
2022-12-19T19:13:21.265Z,2.03
2022-12-19T19:16:45.190Z,1.80
2022-12-19T19:20:09.155Z,1.77
2022-12-19T19:22:56.153Z,1.58
2022-12-19T19:28:26.606Z,1.30
2022-12-19T19:33:47.890Z,2.05
2022-12-19T19:36:38.306Z,1.00
2022-12-19T19:39:05.256Z,1.38
2022-12-19T19:41:34.263Z,1.02
2022-12-19T19:44:01.441Z,1.42
2022-12-19T19:46:28.272Z,1.30
2022-12-19T19:49:15.723Z,1.60
2022-12-19T19:52:03.081Z,1.95
2022-12-19T19:54:49.775Z,1.33
2022-12-19T19:57:16.753Z,1.10
2022-12-19T20:03:09.942Z,0.80
2022-12-19T20:05:37.560Z,0.95
2022-12-19T20:08:42.701Z,0.70
2022-12-19T20:11:10.687Z,0.93
2022-12-19T20:13:38.708Z,0.70
2022-12-19T20:16:11.362Z,0.40
2022-12-19T20:18:57.523Z,0.38
2022-12-19T20:25:26.562Z,0.55
2022-12-19T20:28:12.144Z,0.38
2022-12-19T20:30:38.915Z,0.20
2022-12-19T20:33:05.673Z,0.40
2022-12-19T20:35:32.481Z,0.15
2022-12-19T20:37:59.249Z,0.30
2022-12-19T20:41:05.047Z,0.30
2022-12-19T20:43:32.546Z,0.40
2022-12-19T20:49:18.933Z,0.40
2022-12-19T20:51:47.740Z,0.22
2022-12-19T20:54:15.891Z,0.20
2022-12-19T20:56:43.068Z,0.32
2022-12-19T20:59:28.383Z,0.20
2022-12-19T21:02:52.903Z,0.10
2022-12-19T21:06:36.138Z,0.10
2022-12-19T21:11:47.957Z,0.10
2022-12-19T21:14:14.877Z,0.20
2022-12-19T21:16:41.742Z,0.20
2022-12-19T21:19:08.760Z,0.30
2022-12-19T21:21:35.684Z,0.20
2022-12-19T21:24:02.468Z,0.40
2022-12-19T21:32:19.212Z,0.28
2022-12-19T21:34:46.566Z,0.10
2022-12-19T21:40:36.662Z,0.20
2022-12-19T21:43:22.101Z,0.20
2022-12-19T21:45:48.943Z,0.10
2022-12-19T21:48:36.149Z,0.27
2022-12-19T21:54:09.593Z,0.20
2022-12-19T21:56:41.690Z,0.30
2022-12-19T21:59:16.712Z,0.10
2022-12-19T22:02:03.758Z,0.57
2022-12-19T22:04:31.457Z,0.40
2022-12-19T22:07:17.356Z,0.30
2022-12-19T22:10:23.321Z,0.20
2022-12-19T22:13:09.584Z,0.27
2022-12-19T22:15:36.974Z,0.40
2022-12-19T22:18:03.855Z,0.20
2022-12-19T22:21:10.715Z,0.27
2022-12-19T22:23:37.620Z,0.20
2022-12-19T22:26:16.336Z,0.28
2022-12-19T22:29:28.958Z,0.50
2022-12-19T22:32:14.758Z,0.20
2022-12-19T22:38:04.960Z,0.50
2022-12-19T22:41:09.522Z,0.20
2022-12-19T22:43:37.269Z,0.50
2022-12-19T22:46:22.066Z,0.30
2022-12-19T22:48:50.556Z,0.30
2022-12-19T22:51:18.825Z,0.33
2022-12-19T22:57:09.007Z,0.40
2022-12-19T22:59:35.803Z,0.40
2022-12-19T23:02:02.751Z,0.77
2022-12-19T23:05:07.561Z,0.23
2022-12-19T23:07:35.840Z,0.30
2022-12-19T23:10:03.560Z,0.30
2022-12-19T23:12:30.448Z,0.40
2022-12-19T23:14:57.288Z,0.83
2022-12-19T23:17:24.086Z,0.30
2022-12-19T23:19:50.815Z,0.30
2022-12-19T23:22:36.151Z,0.50
2022-12-19T23:25:03.128Z,0.40
2022-12-19T23:28:07.618Z,0.40
2022-12-19T23:30:35.447Z,0.40
2022-12-19T23:33:02.452Z,1.07
2022-12-19T23:35:33.785Z,0.50
2022-12-19T23:38:00.551Z,0.67
2022-12-19T23:40:27.301Z,0.60
2022-12-19T23:42:54.286Z,0.80
2022-12-19T23:45:21.791Z,0.90
2022-12-19T23:47:48.622Z,0.90
2022-12-19T23:50:15.651Z,0.90
2022-12-19T23:52:44.528Z,0.50
2022-12-19T23:55:12.186Z,0.40
2022-12-19T23:57:39.091Z,1.07
